sensor_id;sensor_type;location;lat;lon;timestamp;P1;durP1;ratioP1;P2;durP2;ratioP2
11384;SDS011;5747;56.748;13.882;2022-07-06T00:01:09;5.30;;;2.20;;
11384;SDS011;5747;56.748;13.882;2022-07-06T00:03:37;3.47;;;1.87;;
11384;SDS011;5747;56.748;13.882;2022-07-06T00:06:06;7.13;;;2.17;;
11384;SDS011;5747;56.748;13.882;2022-07-06T00:08:34;5.13;;;2.17;;
11384;SDS011;5747;56.748;13.882;2022-07-06T00:11:04;3.13;;;2.10;;
11384;SDS011;5747;56.748;13.882;2022-07-06T00:13:32;6.33;;;2.07;;
11384;SDS011;5747;56.748;13.882;2022-07-06T00:16:00;4.03;;;2.40;;
11384;SDS011;5747;56.748;13.882;2022-07-06T00:18:29;7.37;;;2.67;;
11384;SDS011;5747;56.748;13.882;2022-07-06T00:20:57;6.43;;;2.17;;
11384;SDS011;5747;56.748;13.882;2022-07-06T00:23:25;5.47;;;2.03;;
11384;SDS011;5747;56.748;13.882;2022-07-06T00:25:53;2.90;;;2.07;;
11384;SDS011;5747;56.748;13.882;2022-07-06T00:28:23;3.20;;;2.10;;
11384;SDS011;5747;56.748;13.882;2022-07-06T00:30:51;3.23;;;2.30;;
11384;SDS011;5747;56.748;13.882;2022-07-06T00:33:20;5.20;;;2.40;;
11384;SDS011;5747;56.748;13.882;2022-07-06T00:35:48;2.70;;;2.07;;
11384;SDS011;5747;56.748;13.882;2022-07-06T00:38:17;2.50;;;2.17;;
11384;SDS011;5747;56.748;13.882;2022-07-06T00:40:45;3.07;;;2.10;;
11384;SDS011;5747;56.748;13.882;2022-07-06T00:43:13;7.27;;;2.50;;
11384;SDS011;5747;56.748;13.882;2022-07-06T00:45:43;6.40;;;2.60;;
11384;SDS011;5747;56.748;13.882;2022-07-06T00:48:11;5.50;;;2.40;;
11384;SDS011;5747;56.748;13.882;2022-07-06T00:50:39;3.87;;;2.47;;
11384;SDS011;5747;56.748;13.882;2022-07-06T00:53:08;7.93;;;2.40;;
11384;SDS011;5747;56.748;13.882;2022-07-06T00:55:37;5.87;;;2.37;;
11384;SDS011;5747;56.748;13.882;2022-07-06T00:58:06;5.27;;;2.50;;
11384;SDS011;5747;56.748;13.882;2022-07-06T01:00:35;4.67;;;2.40;;
11384;SDS011;5747;56.748;13.882;2022-07-06T01:03:06;5.10;;;2.47;;
11384;SDS011;5747;56.748;13.882;2022-07-06T01:05:34;5.87;;;2.63;;
11384;SDS011;5747;56.748;13.882;2022-07-06T01:08:03;3.67;;;2.43;;
11384;SDS011;5747;56.748;13.882;2022-07-06T01:10:31;4.80;;;2.40;;
11384;SDS011;5747;56.748;13.882;2022-07-06T01:12:59;5.03;;;2.47;;
11384;SDS011;5747;56.748;13.882;2022-07-06T01:15:28;3.27;;;2.10;;
11384;SDS011;5747;56.748;13.882;2022-07-06T01:17:56;5.27;;;2.80;;
11384;SDS011;5747;56.748;13.882;2022-07-06T01:20:30;3.60;;;2.30;;
11384;SDS011;5747;56.748;13.882;2022-07-06T01:22:59;3.27;;;2.10;;
11384;SDS011;5747;56.748;13.882;2022-07-06T01:25:27;5.60;;;2.43;;
11384;SDS011;5747;56.748;13.882;2022-07-06T01:27:55;4.17;;;1.97;;
11384;SDS011;5747;56.748;13.882;2022-07-06T01:30:24;7.93;;;2.27;;
11384;SDS011;5747;56.748;13.882;2022-07-06T01:32:52;5.97;;;2.50;;
11384;SDS011;5747;56.748;13.882;2022-07-06T01:35:20;3.40;;;2.57;;
11384;SDS011;5747;56.748;13.882;2022-07-06T01:37:53;6.27;;;2.50;;
11384;SDS011;5747;56.748;13.882;2022-07-06T01:40:21;8.33;;;2.67;;
11384;SDS011;5747;56.748;13.882;2022-07-06T01:42:49;3.10;;;2.23;;
11384;SDS011;5747;56.748;13.882;2022-07-06T01:45:18;5.77;;;2.40;;
11384;SDS011;5747;56.748;13.882;2022-07-06T01:47:46;7.77;;;2.70;;
11384;SDS011;5747;56.748;13.882;2022-07-06T01:50:15;7.70;;;2.27;;
11384;SDS011;5747;56.748;13.882;2022-07-06T01:52:45;6.00;;;2.60;;
11384;SDS011;5747;56.748;13.882;2022-07-06T01:55:15;4.80;;;2.60;;
11384;SDS011;5747;56.748;13.882;2022-07-06T01:57:43;4.00;;;2.13;;
11384;SDS011;5747;56.748;13.882;2022-07-06T02:00:12;6.00;;;2.17;;
11384;SDS011;5747;56.748;13.882;2022-07-06T02:02:46;3.80;;;2.33;;
11384;SDS011;5747;56.748;13.882;2022-07-06T02:05:14;3.60;;;2.30;;
11384;SDS011;5747;56.748;13.882;2022-07-06T02:07:43;3.90;;;2.23;;
11384;SDS011;5747;56.748;13.882;2022-07-06T02:10:11;3.70;;;2.07;;
11384;SDS011;5747;56.748;13.882;2022-07-06T02:12:42;5.83;;;2.40;;
11384;SDS011;5747;56.748;13.882;2022-07-06T02:15:11;3.20;;;2.00;;
11384;SDS011;5747;56.748;13.882;2022-07-06T02:17:39;5.30;;;2.27;;
11384;SDS011;5747;56.748;13.882;2022-07-06T02:20:08;3.60;;;2.13;;
11384;SDS011;5747;56.748;13.882;2022-07-06T02:22:37;3.87;;;2.43;;
11384;SDS011;5747;56.748;13.882;2022-07-06T02:25:06;2.77;;;2.07;;
11384;SDS011;5747;56.748;13.882;2022-07-06T02:27:36;6.80;;;2.07;;
11384;SDS011;5747;56.748;13.882;2022-07-06T02:30:08;5.10;;;2.40;;
11384;SDS011;5747;56.748;13.882;2022-07-06T02:32:37;4.00;;;2.20;;
11384;SDS011;5747;56.748;13.882;2022-07-06T02:35:06;5.40;;;2.27;;
11384;SDS011;5747;56.748;13.882;2022-07-06T02:37:34;6.53;;;2.30;;
11384;SDS011;5747;56.748;13.882;2022-07-06T02:40:03;3.37;;;2.00;;
11384;SDS011;5747;56.748;13.882;2022-07-06T02:42:32;8.83;;;1.90;;
11384;SDS011;5747;56.748;13.882;2022-07-06T02:45:01;5.27;;;1.87;;
11384;SDS011;5747;56.748;13.882;2022-07-06T02:47:31;6.57;;;1.80;;
11384;SDS011;5747;56.748;13.882;2022-07-06T02:49:59;4.93;;;1.77;;
11384;SDS011;5747;56.748;13.882;2022-07-06T02:52:28;4.13;;;2.00;;
11384;SDS011;5747;56.748;13.882;2022-07-06T02:55:01;3.53;;;1.70;;
11384;SDS011;5747;56.748;13.882;2022-07-06T02:57:29;6.40;;;1.90;;
11384;SDS011;5747;56.748;13.882;2022-07-06T02:59:58;2.77;;;1.50;;
11384;SDS011;5747;56.748;13.882;2022-07-06T03:02:28;4.23;;;2.07;;
11384;SDS011;5747;56.748;13.882;2022-07-06T03:04:58;4.07;;;1.57;;
11384;SDS011;5747;56.748;13.882;2022-07-06T03:07:28;5.80;;;1.93;;
11384;SDS011;5747;56.748;13.882;2022-07-06T03:09:57;3.77;;;1.57;;
11384;SDS011;5747;56.748;13.882;2022-07-06T03:12:26;3.50;;;1.70;;
11384;SDS011;5747;56.748;13.882;2022-07-06T03:14:54;3.00;;;1.60;;
11384;SDS011;5747;56.748;13.882;2022-07-06T03:17:23;4.33;;;1.40;;
11384;SDS011;5747;56.748;13.882;2022-07-06T03:19:52;5.23;;;1.53;;
11384;SDS011;5747;56.748;13.882;2022-07-06T03:22:21;2.40;;;1.20;;
11384;SDS011;5747;56.748;13.882;2022-07-06T03:24:50;5.30;;;1.30;;
11384;SDS011;5747;56.748;13.882;2022-07-06T03:27:18;2.73;;;1.47;;
11384;SDS011;5747;56.748;13.882;2022-07-06T03:29:46;3.80;;;1.20;;
11384;SDS011;5747;56.748;13.882;2022-07-06T03:32:15;2.67;;;1.20;;
11384;SDS011;5747;56.748;13.882;2022-07-06T03:34:44;1.47;;;1.10;;
11384;SDS011;5747;56.748;13.882;2022-07-06T03:37:16;4.50;;;1.20;;
11384;SDS011;5747;56.748;13.882;2022-07-06T03:39:46;3.87;;;1.10;;
11384;SDS011;5747;56.748;13.882;2022-07-06T03:42:15;3.13;;;1.20;;
11384;SDS011;5747;56.748;13.882;2022-07-06T03:44:44;2.37;;;1.00;;
11384;SDS011;5747;56.748;13.882;2022-07-06T03:47:13;2.53;;;1.10;;
11384;SDS011;5747;56.748;13.882;2022-07-06T03:49:42;3.00;;;1.30;;
11384;SDS011;5747;56.748;13.882;2022-07-06T03:52:11;3.60;;;1.10;;
11384;SDS011;5747;56.748;13.882;2022-07-06T03:54:44;4.07;;;1.20;;
11384;SDS011;5747;56.748;13.882;2022-07-06T03:57:20;4.33;;;1.20;;
11384;SDS011;5747;56.748;13.882;2022-07-06T03:59:52;4.00;;;1.50;;
11384;SDS011;5747;56.748;13.882;2022-07-06T04:02:22;5.47;;;1.10;;
11384;SDS011;5747;56.748;13.882;2022-07-06T04:04:51;2.77;;;1.27;;
11384;SDS011;5747;56.748;13.882;2022-07-06T04:07:20;2.53;;;1.10;;
11384;SDS011;5747;56.748;13.882;2022-07-06T04:09:50;4.10;;;1.30;;
11384;SDS011;5747;56.748;13.882;2022-07-06T04:12:19;1.23;;;1.00;;
11384;SDS011;5747;56.748;13.882;2022-07-06T04:14:51;3.30;;;1.20;;
11384;SDS011;5747;56.748;13.882;2022-07-06T04:17:20;3.33;;;1.00;;
11384;SDS011;5747;56.748;13.882;2022-07-06T04:20:07;3.07;;;1.30;;
11384;SDS011;5747;56.748;13.882;2022-07-06T04:22:37;4.93;;;1.30;;
11384;SDS011;5747;56.748;13.882;2022-07-06T04:25:11;4.13;;;1.30;;
11384;SDS011;5747;56.748;13.882;2022-07-06T04:27:40;3.43;;;1.17;;
11384;SDS011;5747;56.748;13.882;2022-07-06T04:30:34;4.25;;;1.23;;
11384;SDS011;5747;56.748;13.882;2022-07-06T04:33:06;3.30;;;1.20;;
11384;SDS011;5747;56.748;13.882;2022-07-06T04:35:35;3.92;;;1.30;;
11384;SDS011;5747;56.748;13.882;2022-07-06T04:38:05;3.67;;;1.20;;
11384;SDS011;5747;56.748;13.882;2022-07-06T04:40:39;5.72;;;1.35;;
11384;SDS011;5747;56.748;13.882;2022-07-06T04:43:12;3.38;;;1.20;;
11384;SDS011;5747;56.748;13.882;2022-07-06T04:45:42;3.17;;;1.25;;
11384;SDS011;5747;56.748;13.882;2022-07-06T04:48:11;4.53;;;1.25;;
11384;SDS011;5747;56.748;13.882;2022-07-06T04:50:40;4.28;;;1.33;;
11384;SDS011;5747;56.748;13.882;2022-07-06T04:53:15;3.42;;;1.52;;
11384;SDS011;5747;56.748;13.882;2022-07-06T04:56:23;3.35;;;1.13;;
11384;SDS011;5747;56.748;13.882;2022-07-06T04:58:52;2.90;;;1.10;;
11384;SDS011;5747;56.748;13.882;2022-07-06T05:01:21;2.92;;;1.23;;
11384;SDS011;5747;56.748;13.882;2022-07-06T05:03:50;2.55;;;1.23;;
11384;SDS011;5747;56.748;13.882;2022-07-06T05:06:43;2.10;;;1.05;;
11384;SDS011;5747;56.748;13.882;2022-07-06T05:09:13;3.22;;;1.25;;
11384;SDS011;5747;56.748;13.882;2022-07-06T05:11:44;6.60;;;1.33;;
11384;SDS011;5747;56.748;13.882;2022-07-06T05:14:13;3.03;;;1.10;;
11384;SDS011;5747;56.748;13.882;2022-07-06T05:16:42;4.20;;;1.30;;
11384;SDS011;5747;56.748;13.882;2022-07-06T05:19:11;5.43;;;1.20;;
11384;SDS011;5747;56.748;13.882;2022-07-06T05:21:40;2.60;;;1.30;;
11384;SDS011;5747;56.748;13.882;2022-07-06T05:24:10;2.72;;;1.20;;
11384;SDS011;5747;56.748;13.882;2022-07-06T05:26:38;3.97;;;1.33;;
11384;SDS011;5747;56.748;13.882;2022-07-06T05:29:08;2.00;;;1.00;;
11384;SDS011;5747;56.748;13.882;2022-07-06T05:31:45;2.83;;;1.00;;
11384;SDS011;5747;56.748;13.882;2022-07-06T05:34:13;4.60;;;1.30;;
11384;SDS011;5747;56.748;13.882;2022-07-06T05:36:42;7.27;;;1.80;;
11384;SDS011;5747;56.748;13.882;2022-07-06T05:39:10;2.33;;;1.10;;
11384;SDS011;5747;56.748;13.882;2022-07-06T05:41:39;5.57;;;1.20;;
11384;SDS011;5747;56.748;13.882;2022-07-06T05:44:08;6.27;;;1.20;;
11384;SDS011;5747;56.748;13.882;2022-07-06T05:46:37;2.80;;;1.07;;
11384;SDS011;5747;56.748;13.882;2022-07-06T05:49:05;4.97;;;1.47;;
11384;SDS011;5747;56.748;13.882;2022-07-06T05:51:53;4.80;;;1.23;;
11384;SDS011;5747;56.748;13.882;2022-07-06T05:54:22;3.97;;;1.07;;
11384;SDS011;5747;56.748;13.882;2022-07-06T05:56:50;3.53;;;1.00;;
11384;SDS011;5747;56.748;13.882;2022-07-06T05:59:21;4.17;;;1.37;;
11384;SDS011;5747;56.748;13.882;2022-07-06T06:01:50;3.33;;;1.03;;
11384;SDS011;5747;56.748;13.882;2022-07-06T06:07:05;4.13;;;1.30;;
11384;SDS011;5747;56.748;13.882;2022-07-06T06:09:33;5.10;;;1.10;;
11384;SDS011;5747;56.748;13.882;2022-07-06T06:12:01;3.87;;;1.10;;
11384;SDS011;5747;56.748;13.882;2022-07-06T06:14:31;4.40;;;1.00;;
11384;SDS011;5747;56.748;13.882;2022-07-06T06:17:01;5.63;;;1.20;;
11384;SDS011;5747;56.748;13.882;2022-07-06T06:19:35;5.60;;;1.20;;
11384;SDS011;5747;56.748;13.882;2022-07-06T06:22:03;7.13;;;1.20;;
11384;SDS011;5747;56.748;13.882;2022-07-06T06:24:33;5.80;;;1.00;;
11384;SDS011;5747;56.748;13.882;2022-07-06T06:27:01;3.00;;;0.80;;
11384;SDS011;5747;56.748;13.882;2022-07-06T06:29:29;2.77;;;0.90;;
11384;SDS011;5747;56.748;13.882;2022-07-06T06:31:59;3.93;;;1.03;;
11384;SDS011;5747;56.748;13.882;2022-07-06T06:34:27;4.50;;;1.20;;
11384;SDS011;5747;56.748;13.882;2022-07-06T06:36:55;2.37;;;0.80;;
11384;SDS011;5747;56.748;13.882;2022-07-06T06:39:25;3.60;;;0.90;;
11384;SDS011;5747;56.748;13.882;2022-07-06T06:41:54;3.30;;;1.00;;
11384;SDS011;5747;56.748;13.882;2022-07-06T06:44:22;5.00;;;0.90;;
11384;SDS011;5747;56.748;13.882;2022-07-06T06:46:52;4.10;;;1.27;;
11384;SDS011;5747;56.748;13.882;2022-07-06T06:49:20;3.13;;;0.93;;
11384;SDS011;5747;56.748;13.882;2022-07-06T06:51:48;2.70;;;1.10;;
11384;SDS011;5747;56.748;13.882;2022-07-06T06:54:17;3.43;;;1.00;;
11384;SDS011;5747;56.748;13.882;2022-07-06T06:56:45;3.80;;;1.37;;
11384;SDS011;5747;56.748;13.882;2022-07-06T06:59:13;6.10;;;1.10;;
11384;SDS011;5747;56.748;13.882;2022-07-06T07:01:43;4.23;;;0.90;;
11384;SDS011;5747;56.748;13.882;2022-07-06T07:04:20;3.70;;;1.13;;
11384;SDS011;5747;56.748;13.882;2022-07-06T07:06:48;3.60;;;0.80;;
11384;SDS011;5747;56.748;13.882;2022-07-06T07:09:16;4.80;;;1.10;;
11384;SDS011;5747;56.748;13.882;2022-07-06T07:11:45;4.30;;;0.80;;
11384;SDS011;5747;56.748;13.882;2022-07-06T07:14:13;2.77;;;0.73;;
11384;SDS011;5747;56.748;13.882;2022-07-06T07:16:41;5.10;;;1.20;;
11384;SDS011;5747;56.748;13.882;2022-07-06T07:19:09;1.77;;;1.00;;
11384;SDS011;5747;56.748;13.882;2022-07-06T07:21:38;4.10;;;1.07;;
11384;SDS011;5747;56.748;13.882;2022-07-06T07:24:06;4.90;;;1.20;;
11384;SDS011;5747;56.748;13.882;2022-07-06T07:26:36;3.97;;;0.90;;
11384;SDS011;5747;56.748;13.882;2022-07-06T07:29:04;2.90;;;0.70;;
11384;SDS011;5747;56.748;13.882;2022-07-06T07:31:32;4.67;;;1.03;;
11384;SDS011;5747;56.748;13.882;2022-07-06T07:34:00;1.93;;;0.80;;
11384;SDS011;5747;56.748;13.882;2022-07-06T07:36:29;1.67;;;0.77;;
11384;SDS011;5747;56.748;13.882;2022-07-06T07:38:58;7.30;;;0.80;;
11384;SDS011;5747;56.748;13.882;2022-07-06T07:41:26;1.13;;;0.70;;
11384;SDS011;5747;56.748;13.882;2022-07-06T07:43:55;3.20;;;0.97;;
11384;SDS011;5747;56.748;13.882;2022-07-06T07:46:23;2.13;;;0.77;;
11384;SDS011;5747;56.748;13.882;2022-07-06T07:48:51;1.23;;;0.60;;
11384;SDS011;5747;56.748;13.882;2022-07-06T07:51:19;1.53;;;0.87;;
11384;SDS011;5747;56.748;13.882;2022-07-06T07:53:47;3.17;;;0.80;;
11384;SDS011;5747;56.748;13.882;2022-07-06T07:56:17;3.80;;;0.90;;
11384;SDS011;5747;56.748;13.882;2022-07-06T07:58:45;4.57;;;0.70;;
11384;SDS011;5747;56.748;13.882;2022-07-06T08:01:19;3.47;;;0.67;;
11384;SDS011;5747;56.748;13.882;2022-07-06T08:03:47;3.23;;;0.80;;
11384;SDS011;5747;56.748;13.882;2022-07-06T08:06:15;5.83;;;0.80;;
11384;SDS011;5747;56.748;13.882;2022-07-06T08:08:43;2.73;;;0.70;;
11384;SDS011;5747;56.748;13.882;2022-07-06T08:11:11;1.20;;;0.60;;
11384;SDS011;5747;56.748;13.882;2022-07-06T08:13:45;1.40;;;0.70;;
11384;SDS011;5747;56.748;13.882;2022-07-06T08:16:14;3.33;;;0.67;;
11384;SDS011;5747;56.748;13.882;2022-07-06T08:18:43;2.37;;;0.80;;
11384;SDS011;5747;56.748;13.882;2022-07-06T08:21:11;1.93;;;0.50;;
11384;SDS011;5747;56.748;13.882;2022-07-06T08:23:54;1.13;;;0.53;;
11384;SDS011;5747;56.748;13.882;2022-07-06T08:26:23;2.53;;;0.67;;
11384;SDS011;5747;56.748;13.882;2022-07-06T08:28:53;2.70;;;0.90;;
11384;SDS011;5747;56.748;13.882;2022-07-06T08:31:21;2.00;;;0.70;;
11384;SDS011;5747;56.748;13.882;2022-07-06T08:34:09;4.30;;;0.70;;
11384;SDS011;5747;56.748;13.882;2022-07-06T08:36:37;2.10;;;0.50;;
11384;SDS011;5747;56.748;13.882;2022-07-06T08:39:05;3.00;;;0.80;;
11384;SDS011;5747;56.748;13.882;2022-07-06T08:41:34;1.33;;;0.70;;
11384;SDS011;5747;56.748;13.882;2022-07-06T08:44:05;5.47;;;0.73;;
11384;SDS011;5747;56.748;13.882;2022-07-06T08:46:35;1.37;;;0.73;;
11384;SDS011;5747;56.748;13.882;2022-07-06T08:49:06;2.43;;;0.77;;
11384;SDS011;5747;56.748;13.882;2022-07-06T08:51:35;3.20;;;1.00;;
11384;SDS011;5747;56.748;13.882;2022-07-06T08:54:04;3.17;;;0.90;;
11384;SDS011;5747;56.748;13.882;2022-07-06T08:56:33;2.77;;;0.70;;
11384;SDS011;5747;56.748;13.882;2022-07-06T08:59:01;5.20;;;0.83;;
11384;SDS011;5747;56.748;13.882;2022-07-06T09:01:31;0.83;;;0.47;;
11384;SDS011;5747;56.748;13.882;2022-07-06T09:04:00;2.77;;;0.63;;
11384;SDS011;5747;56.748;13.882;2022-07-06T09:06:32;3.20;;;0.73;;
11384;SDS011;5747;56.748;13.882;2022-07-06T09:09:03;1.30;;;0.50;;
11384;SDS011;5747;56.748;13.882;2022-07-06T09:11:33;1.50;;;0.60;;
11384;SDS011;5747;56.748;13.882;2022-07-06T09:14:02;3.30;;;0.70;;
11384;SDS011;5747;56.748;13.882;2022-07-06T09:16:32;2.60;;;0.87;;
11384;SDS011;5747;56.748;13.882;2022-07-06T09:19:04;0.50;;;0.50;;
11384;SDS011;5747;56.748;13.882;2022-07-06T09:21:33;1.80;;;0.60;;
11384;SDS011;5747;56.748;13.882;2022-07-06T09:24:05;2.30;;;0.73;;
11384;SDS011;5747;56.748;13.882;2022-07-06T09:26:35;2.43;;;0.60;;
11384;SDS011;5747;56.748;13.882;2022-07-06T09:29:04;1.27;;;0.70;;
11384;SDS011;5747;56.748;13.882;2022-07-06T09:31:34;1.60;;;0.50;;
11384;SDS011;5747;56.748;13.882;2022-07-06T09:34:03;0.83;;;0.50;;
11384;SDS011;5747;56.748;13.882;2022-07-06T09:36:36;3.43;;;0.60;;
11384;SDS011;5747;56.748;13.882;2022-07-06T09:39:19;0.57;;;0.40;;
11384;SDS011;5747;56.748;13.882;2022-07-06T09:41:49;2.83;;;0.70;;
11384;SDS011;5747;56.748;13.882;2022-07-06T09:44:20;2.03;;;0.60;;
11384;SDS011;5747;56.748;13.882;2022-07-06T09:46:50;2.93;;;0.73;;
11384;SDS011;5747;56.748;13.882;2022-07-06T09:49:19;3.10;;;0.70;;
11384;SDS011;5747;56.748;13.882;2022-07-06T09:51:49;0.87;;;0.50;;
11384;SDS011;5747;56.748;13.882;2022-07-06T09:54:19;3.20;;;0.80;;
11384;SDS011;5747;56.748;13.882;2022-07-06T09:56:48;2.67;;;0.60;;
11384;SDS011;5747;56.748;13.882;2022-07-06T09:59:18;3.83;;;0.83;;
11384;SDS011;5747;56.748;13.882;2022-07-06T10:01:49;1.87;;;0.70;;
11384;SDS011;5747;56.748;13.882;2022-07-06T10:04:21;2.43;;;0.60;;
11384;SDS011;5747;56.748;13.882;2022-07-06T10:06:50;1.07;;;0.50;;
11384;SDS011;5747;56.748;13.882;2022-07-06T10:09:19;3.50;;;0.70;;
11384;SDS011;5747;56.748;13.882;2022-07-06T10:11:50;2.43;;;0.70;;
11384;SDS011;5747;56.748;13.882;2022-07-06T10:14:20;3.40;;;0.73;;
11384;SDS011;5747;56.748;13.882;2022-07-06T10:16:49;1.57;;;0.60;;
11384;SDS011;5747;56.748;13.882;2022-07-06T10:19:20;5.77;;;1.20;;
11384;SDS011;5747;56.748;13.882;2022-07-06T10:21:49;2.13;;;0.60;;
11384;SDS011;5747;56.748;13.882;2022-07-06T10:24:19;4.87;;;1.00;;
11384;SDS011;5747;56.748;13.882;2022-07-06T10:26:48;1.33;;;0.43;;
11384;SDS011;5747;56.748;13.882;2022-07-06T10:29:16;4.97;;;0.87;;
11384;SDS011;5747;56.748;13.882;2022-07-06T10:31:45;1.80;;;0.70;;
11384;SDS011;5747;56.748;13.882;2022-07-06T10:34:15;1.33;;;0.50;;
11384;SDS011;5747;56.748;13.882;2022-07-06T10:36:49;1.10;;;0.50;;
11384;SDS011;5747;56.748;13.882;2022-07-06T10:39:31;1.40;;;0.33;;
11384;SDS011;5747;56.748;13.882;2022-07-06T10:48:22;1.53;;;0.50;;
11384;SDS011;5747;56.748;13.882;2022-07-06T10:50:52;1.77;;;0.70;;
11384;SDS011;5747;56.748;13.882;2022-07-06T10:53:23;2.90;;;0.90;;
11384;SDS011;5747;56.748;13.882;2022-07-06T10:55:52;3.63;;;0.77;;
11384;SDS011;5747;56.748;13.882;2022-07-06T10:58:34;0.70;;;0.70;;
11384;SDS011;5747;56.748;13.882;2022-07-06T11:01:21;6.03;;;0.80;;
11384;SDS011;5747;56.748;13.882;2022-07-06T11:04:04;1.10;;;0.70;;
11384;SDS011;5747;56.748;13.882;2022-07-06T11:06:34;1.50;;;0.67;;
11384;SDS011;5747;56.748;13.882;2022-07-06T11:09:05;5.17;;;0.90;;
11384;SDS011;5747;56.748;13.882;2022-07-06T11:11:38;3.17;;;0.70;;
11384;SDS011;5747;56.748;13.882;2022-07-06T11:14:09;1.97;;;0.60;;
11384;SDS011;5747;56.748;13.882;2022-07-06T11:16:39;0.50;;;0.50;;
11384;SDS011;5747;56.748;13.882;2022-07-06T11:19:27;2.47;;;0.67;;
11384;SDS011;5747;56.748;13.882;2022-07-06T11:21:56;2.70;;;0.70;;
11384;SDS011;5747;56.748;13.882;2022-07-06T11:24:28;2.13;;;0.60;;
11384;SDS011;5747;56.748;13.882;2022-07-06T11:26:58;1.77;;;0.80;;
11384;SDS011;5747;56.748;13.882;2022-07-06T11:29:27;1.57;;;0.63;;
11384;SDS011;5747;56.748;13.882;2022-07-06T11:31:57;1.43;;;0.50;;
11384;SDS011;5747;56.748;13.882;2022-07-06T11:34:28;0.97;;;0.50;;
11384;SDS011;5747;56.748;13.882;2022-07-06T11:36:57;3.37;;;0.93;;
11384;SDS011;5747;56.748;13.882;2022-07-06T11:39:28;0.73;;;0.50;;
11384;SDS011;5747;56.748;13.882;2022-07-06T11:41:57;2.43;;;0.40;;
11384;SDS011;5747;56.748;13.882;2022-07-06T11:44:26;0.40;;;0.40;;
11384;SDS011;5747;56.748;13.882;2022-07-06T11:46:55;1.87;;;0.60;;
11384;SDS011;5747;56.748;13.882;2022-07-06T11:49:27;2.60;;;0.60;;
11384;SDS011;5747;56.748;13.882;2022-07-06T11:51:55;2.87;;;0.60;;
11384;SDS011;5747;56.748;13.882;2022-07-06T11:54:24;2.53;;;0.57;;
11384;SDS011;5747;56.748;13.882;2022-07-06T11:56:55;1.73;;;0.67;;
11384;SDS011;5747;56.748;13.882;2022-07-06T11:59:26;0.70;;;0.70;;
11384;SDS011;5747;56.748;13.882;2022-07-06T12:01:59;0.50;;;0.50;;
11384;SDS011;5747;56.748;13.882;2022-07-06T12:04:28;0.30;;;0.30;;
11384;SDS011;5747;56.748;13.882;2022-07-06T12:06:59;0.40;;;0.30;;
11384;SDS011;5747;56.748;13.882;2022-07-06T12:09:29;0.63;;;0.40;;
11384;SDS011;5747;56.748;13.882;2022-07-06T12:12:00;1.43;;;0.40;;
11384;SDS011;5747;56.748;13.882;2022-07-06T12:14:30;0.63;;;0.30;;
11384;SDS011;5747;56.748;13.882;2022-07-06T12:17:02;0.87;;;0.50;;
11384;SDS011;5747;56.748;13.882;2022-07-06T12:19:32;0.50;;;0.40;;
11384;SDS011;5747;56.748;13.882;2022-07-06T12:22:01;1.63;;;0.70;;
11384;SDS011;5747;56.748;13.882;2022-07-06T12:24:30;1.57;;;0.67;;
11384;SDS011;5747;56.748;13.882;2022-07-06T12:27:10;2.97;;;0.73;;
11384;SDS011;5747;56.748;13.882;2022-07-06T12:29:39;0.93;;;0.50;;
11384;SDS011;5747;56.748;13.882;2022-07-06T12:32:13;6.00;;;0.70;;
11384;SDS011;5747;56.748;13.882;2022-07-06T12:34:42;1.57;;;0.37;;
11384;SDS011;5747;56.748;13.882;2022-07-06T12:37:11;1.03;;;0.33;;
11384;SDS011;5747;56.748;13.882;2022-07-06T12:39:40;0.77;;;0.40;;
11384;SDS011;5747;56.748;13.882;2022-07-06T12:42:12;1.07;;;0.40;;
11384;SDS011;5747;56.748;13.882;2022-07-06T12:44:45;3.70;;;0.70;;
11384;SDS011;5747;56.748;13.882;2022-07-06T12:47:16;4.13;;;0.63;;
11384;SDS011;5747;56.748;13.882;2022-07-06T12:49:45;1.73;;;0.37;;
11384;SDS011;5747;56.748;13.882;2022-07-06T12:52:14;0.73;;;0.50;;
11384;SDS011;5747;56.748;13.882;2022-07-06T12:54:43;0.53;;;0.43;;
11384;SDS011;5747;56.748;13.882;2022-07-06T12:57:15;2.43;;;0.60;;
11384;SDS011;5747;56.748;13.882;2022-07-06T12:59:45;1.80;;;0.40;;
11384;SDS011;5747;56.748;13.882;2022-07-06T13:02:20;2.27;;;0.60;;
11384;SDS011;5747;56.748;13.882;2022-07-06T13:05:10;2.43;;;0.43;;
11384;SDS011;5747;56.748;13.882;2022-07-06T13:07:43;1.37;;;0.40;;
11384;SDS011;5747;56.748;13.882;2022-07-06T13:10:13;1.43;;;0.50;;
11384;SDS011;5747;56.748;13.882;2022-07-06T13:12:43;0.93;;;0.60;;
11384;SDS011;5747;56.748;13.882;2022-07-06T13:15:12;2.53;;;0.53;;
11384;SDS011;5747;56.748;13.882;2022-07-06T13:17:40;1.83;;;0.50;;
11384;SDS011;5747;56.748;13.882;2022-07-06T13:20:09;0.97;;;0.50;;
11384;SDS011;5747;56.748;13.882;2022-07-06T13:22:40;1.43;;;0.37;;
11384;SDS011;5747;56.748;13.882;2022-07-06T13:25:08;2.60;;;0.87;;
11384;SDS011;5747;56.748;13.882;2022-07-06T13:27:36;1.80;;;0.70;;
11384;SDS011;5747;56.748;13.882;2022-07-06T13:30:06;0.83;;;0.40;;
11384;SDS011;5747;56.748;13.882;2022-07-06T13:32:36;0.77;;;0.40;;
11384;SDS011;5747;56.748;13.882;2022-07-06T13:35:06;0.90;;;0.60;;
11384;SDS011;5747;56.748;13.882;2022-07-06T13:37:36;1.70;;;0.47;;
11384;SDS011;5747;56.748;13.882;2022-07-06T13:40:04;1.70;;;0.70;;
11384;SDS011;5747;56.748;13.882;2022-07-06T13:42:33;1.90;;;0.57;;
11384;SDS011;5747;56.748;13.882;2022-07-06T13:45:01;0.70;;;0.40;;
11384;SDS011;5747;56.748;13.882;2022-07-06T13:47:31;1.23;;;0.60;;
11384;SDS011;5747;56.748;13.882;2022-07-06T13:49:59;1.90;;;0.37;;
11384;SDS011;5747;56.748;13.882;2022-07-06T13:52:27;2.07;;;0.40;;
11384;SDS011;5747;56.748;13.882;2022-07-06T13:54:55;0.83;;;0.30;;
11384;SDS011;5747;56.748;13.882;2022-07-06T13:57:27;2.87;;;0.60;;
11384;SDS011;5747;56.748;13.882;2022-07-06T13:59:56;1.17;;;0.47;;
11384;SDS011;5747;56.748;13.882;2022-07-06T14:02:24;0.87;;;0.50;;
11384;SDS011;5747;56.748;13.882;2022-07-06T14:04:54;3.10;;;0.67;;
11384;SDS011;5747;56.748;13.882;2022-07-06T14:07:22;2.77;;;0.50;;
11384;SDS011;5747;56.748;13.882;2022-07-06T14:09:50;1.03;;;0.53;;
11384;SDS011;5747;56.748;13.882;2022-07-06T14:12:19;1.93;;;0.87;;
11384;SDS011;5747;56.748;13.882;2022-07-06T14:14:48;0.50;;;0.30;;
11384;SDS011;5747;56.748;13.882;2022-07-06T14:17:17;0.30;;;0.23;;
11384;SDS011;5747;56.748;13.882;2022-07-06T14:19:45;1.40;;;0.60;;
11384;SDS011;5747;56.748;13.882;2022-07-06T14:22:15;1.60;;;0.63;;
11384;SDS011;5747;56.748;13.882;2022-07-06T14:24:43;1.83;;;0.50;;
11384;SDS011;5747;56.748;13.882;2022-07-06T14:27:11;2.77;;;0.70;;
11384;SDS011;5747;56.748;13.882;2022-07-06T14:29:39;1.33;;;0.60;;
11384;SDS011;5747;56.748;13.882;2022-07-06T14:32:07;1.57;;;0.73;;
11384;SDS011;5747;56.748;13.882;2022-07-06T14:34:36;2.10;;;0.60;;
11384;SDS011;5747;56.748;13.882;2022-07-06T14:37:04;1.27;;;0.50;;
11384;SDS011;5747;56.748;13.882;2022-07-06T14:39:33;1.77;;;0.60;;
11384;SDS011;5747;56.748;13.882;2022-07-06T14:42:02;2.10;;;0.50;;
11384;SDS011;5747;56.748;13.882;2022-07-06T14:44:30;2.60;;;0.70;;
11384;SDS011;5747;56.748;13.882;2022-07-06T14:46:58;0.57;;;0.40;;
11384;SDS011;5747;56.748;13.882;2022-07-06T14:49:26;1.20;;;0.57;;
11384;SDS011;5747;56.748;13.882;2022-07-06T14:51:54;1.53;;;0.50;;
11384;SDS011;5747;56.748;13.882;2022-07-06T14:54:23;1.90;;;0.60;;
11384;SDS011;5747;56.748;13.882;2022-07-06T14:56:53;1.57;;;0.50;;
11384;SDS011;5747;56.748;13.882;2022-07-06T14:59:21;1.17;;;0.60;;
11384;SDS011;5747;56.748;13.882;2022-07-06T15:01:51;4.07;;;0.67;;
11384;SDS011;5747;56.748;13.882;2022-07-06T15:04:20;2.17;;;0.70;;
11384;SDS011;5747;56.748;13.882;2022-07-06T15:06:48;0.97;;;0.70;;
11384;SDS011;5747;56.748;13.882;2022-07-06T15:09:21;2.83;;;0.70;;
11384;SDS011;5747;56.748;13.882;2022-07-06T15:11:49;1.33;;;0.40;;
11384;SDS011;5747;56.748;13.882;2022-07-06T15:14:19;4.30;;;0.60;;